Caradan, Texas
Current Conditions -  °F | °C
As of 4:55 PM on Wednesday 26 Nov 2014 (Local Time) from KLZZ Reporting Station
Clear Clear  
Wind Chill: 63°   Ceiling: Unl
Heat Index: 63°   Visibility: 10mi
Dew Point: 31°   Wind: 5mph
Humidity: 30%   Direction: 360°N
Pressure: 30.22"   Gusts: NA
Location:  31.3914°N, 98.5866°W
Report Text: KLZZ 262255Z AUTO 36004KT 10SM CLR 17/00 A3022 RMK AO2 T01741003
Loading
Personal Weather Stations






























Interactive Weather Map New forecast layout! Learn more

10-Day Weather Forecast

Advertisements
Track Severe Weather on mobile